createdAt,value
2022-09-15T00:00:28.570Z,15.00
2022-09-15T00:01:30.448Z,14.98
2022-09-15T00:02:35.010Z,14.99
2022-09-15T00:03:36.918Z,14.98
2022-09-15T00:04:41.318Z,14.98
2022-09-15T00:05:43.174Z,14.98
2022-09-15T00:06:47.544Z,14.98
2022-09-15T00:07:49.304Z,14.98
2022-09-15T00:08:53.769Z,14.98
2022-09-15T00:09:55.546Z,14.92
2022-09-15T00:11:01.346Z,14.97
2022-09-15T00:12:03.145Z,14.98
2022-09-15T00:13:07.528Z,14.97
2022-09-15T00:14:09.706Z,14.97
2022-09-15T00:15:15.557Z,14.96
2022-09-15T00:16:18.190Z,14.96
2022-09-15T00:17:22.909Z,14.95
2022-09-15T00:18:25.469Z,14.94
2022-09-15T00:19:29.878Z,14.92
2022-09-15T00:20:31.778Z,14.89
2022-09-15T00:21:36.901Z,14.87
2022-09-15T00:22:38.684Z,14.86
2022-09-15T00:23:43.117Z,14.83
2022-09-15T00:24:44.883Z,14.82
2022-09-15T00:25:53.039Z,14.84
2022-09-15T00:26:54.851Z,14.85
2022-09-15T00:27:59.635Z,14.85
2022-09-15T00:29:01.761Z,14.88
2022-09-15T00:30:06.887Z,14.89
2022-09-15T00:31:10.244Z,14.93
2022-09-15T00:32:14.666Z,14.95
2022-09-15T00:33:16.584Z,15.01
2022-09-15T00:34:20.972Z,15.05
2022-09-15T00:35:22.725Z,15.03
2022-09-15T00:36:27.441Z,15.12
2022-09-15T00:37:29.246Z,15.16
2022-09-15T00:38:33.865Z,15.20
2022-09-15T00:39:35.782Z,15.22
2022-09-15T00:40:49.962Z,15.26
2022-09-15T00:41:51.861Z,15.28
2022-09-15T00:42:56.289Z,15.29
2022-09-15T00:43:59.366Z,15.28
2022-09-15T00:45:04.983Z,15.28
2022-09-15T00:46:06.889Z,15.27
2022-09-15T00:47:19.915Z,15.27
2022-09-15T00:48:22.001Z,15.27
2022-09-15T00:49:30.761Z,15.25
2022-09-15T00:50:32.750Z,15.26
2022-09-15T00:51:42.646Z,15.26
2022-09-15T00:52:48.454Z,15.18
2022-09-15T00:53:53.003Z,15.28
2022-09-15T00:55:04.451Z,15.27
2022-09-15T00:56:09.134Z,15.27
2022-09-15T00:57:12.349Z,15.27
2022-09-15T00:58:22.562Z,15.29
2022-09-15T00:59:25.170Z,15.27
2022-09-15T01:00:30.159Z,15.27
2022-09-15T01:01:32.181Z,15.28
2022-09-15T01:02:37.424Z,15.27
2022-09-15T01:03:39.540Z,15.27
2022-09-15T01:04:43.990Z,15.26
2022-09-15T01:05:46.805Z,15.26
2022-09-15T01:06:52.354Z,15.25
2022-09-15T01:07:57.057Z,15.24
2022-09-15T01:09:07.662Z,15.23
2022-09-15T01:10:17.116Z,15.20
2022-09-15T01:11:21.521Z,15.21
2022-09-15T01:12:23.368Z,15.20
2022-09-15T01:13:29.743Z,15.19
2022-09-15T01:14:32.517Z,15.16
2022-09-15T01:15:48.860Z,15.15
2022-09-15T01:16:56.528Z,15.13
2022-09-15T01:18:07.217Z,15.13
2022-09-15T01:19:23.196Z,15.11
2022-09-15T01:20:34.179Z,15.11
2022-09-15T01:21:46.818Z,15.12
2022-09-15T01:23:06.296Z,15.09
2022-09-15T01:24:14.154Z,15.09
2022-09-15T01:25:35.332Z,15.09
2022-09-15T01:26:58.167Z,15.03
2022-09-15T01:28:21.172Z,15.07
2022-09-15T01:29:35.138Z,15.06
2022-09-15T01:30:42.954Z,15.04
2022-09-15T01:32:01.953Z,15.04
2022-09-15T01:33:05.653Z,15.04
2022-09-15T01:34:12.246Z,15.04
2022-09-15T01:35:28.771Z,15.03
2022-09-15T01:36:38.893Z,15.05
2022-09-15T01:37:42.869Z,15.06
2022-09-15T01:38:52.445Z,15.06
2022-09-15T01:39:54.453Z,15.07
2022-09-15T01:41:04.889Z,15.07
2022-09-15T01:42:07.414Z,15.07
2022-09-15T01:43:12.107Z,15.07
2022-09-15T01:44:15.189Z,15.09
2022-09-15T01:45:21.082Z,15.09
2022-09-15T01:46:26.420Z,15.10
2022-09-15T01:47:28.509Z,15.09
2022-09-15T01:48:32.883Z,15.08
2022-09-15T01:49:35.770Z,15.09
2022-09-15T01:50:45.574Z,15.10
2022-09-15T01:51:47.865Z,15.09
2022-09-15T01:52:52.623Z,15.11
2022-09-15T01:53:57.075Z,15.09
2022-09-15T01:55:00.616Z,15.03
2022-09-15T01:56:14.333Z,15.10
2022-09-15T01:57:17.345Z,15.08
2022-09-15T01:58:21.698Z,15.08
2022-09-15T01:59:26.052Z,15.09
2022-09-15T02:00:29.387Z,15.09
2022-09-15T02:01:40.615Z,15.09
2022-09-15T02:02:49.345Z,15.08
2022-09-15T02:03:55.659Z,15.08
2022-09-15T02:05:01.105Z,15.08
2022-09-15T02:06:07.300Z,15.08
2022-09-15T02:07:13.826Z,15.09
2022-09-15T02:08:20.065Z,15.09
2022-09-15T02:09:27.179Z,15.09
2022-09-15T02:10:40.320Z,15.09
2022-09-15T02:11:49.110Z,15.09
2022-09-15T02:12:59.966Z,15.08
2022-09-15T02:14:11.404Z,15.09
2022-09-15T02:15:16.918Z,15.09
2022-09-15T02:16:20.318Z,15.09
2022-09-15T02:17:24.988Z,15.09
2022-09-15T02:18:38.721Z,15.08
2022-09-15T02:19:43.992Z,15.10
2022-09-15T02:20:58.623Z,15.10
2022-09-15T02:22:28.953Z,15.12
2022-09-15T02:23:31.983Z,15.12
2022-09-15T02:24:59.550Z,15.12
2022-09-15T02:26:08.927Z,15.13
2022-09-15T02:27:15.671Z,15.14
2022-09-15T02:28:17.503Z,15.14
2022-09-15T02:29:22.114Z,15.13
2022-09-15T02:30:23.992Z,15.13
2022-09-15T02:31:28.434Z,15.14
2022-09-15T02:32:30.379Z,15.16
2022-09-15T02:33:35.914Z,15.17
2022-09-15T02:34:38.668Z,15.18
2022-09-15T02:35:43.097Z,15.18
2022-09-15T02:36:45.902Z,15.19
2022-09-15T02:37:50.277Z,15.19
2022-09-15T02:38:59.531Z,15.19
2022-09-15T02:40:04.015Z,15.18
2022-09-15T02:41:06.001Z,15.16
2022-09-15T02:42:10.645Z,15.16
2022-09-15T02:44:52.178Z,15.14
2022-09-15T02:45:55.244Z,15.14
2022-09-15T02:47:00.646Z,15.13
2022-09-15T02:48:02.505Z,15.13
2022-09-15T02:49:07.042Z,15.13
2022-09-15T02:50:08.893Z,15.13
2022-09-15T02:51:14.285Z,15.13
2022-09-15T02:52:16.097Z,15.12
2022-09-15T02:53:20.553Z,15.14
2022-09-15T02:54:22.315Z,15.14
2022-09-15T02:55:29.116Z,15.17
2022-09-15T02:56:31.049Z,15.16
2022-09-15T02:57:35.411Z,15.17
2022-09-15T02:58:37.210Z,15.18
2022-09-15T02:59:54.030Z,15.19
2022-09-15T03:00:58.504Z,15.20
2022-09-15T03:02:00.497Z,15.20
2022-09-15T03:03:04.954Z,15.22
2022-09-15T03:04:06.759Z,15.23
2022-09-15T03:05:11.666Z,15.26
2022-09-15T03:06:16.714Z,15.27
2022-09-15T03:07:21.729Z,15.29
2022-09-15T03:08:23.724Z,15.31
2022-09-15T03:09:28.358Z,15.34
2022-09-15T03:10:30.580Z,15.37
2022-09-15T03:11:35.369Z,15.40
2022-09-15T03:12:37.886Z,15.43
2022-09-15T03:13:42.575Z,15.44
2022-09-15T03:14:44.589Z,15.46
2022-09-15T03:15:49.032Z,15.48
2022-09-15T03:16:50.843Z,15.49
2022-09-15T03:17:55.326Z,15.50
2022-09-15T03:18:58.766Z,15.52
2022-09-15T03:20:03.350Z,15.54
2022-09-15T03:21:06.006Z,15.55
2022-09-15T03:22:10.552Z,15.54
2022-09-15T03:23:12.365Z,15.56
2022-09-15T03:24:18.922Z,15.57
2022-09-15T03:25:20.951Z,15.58
2022-09-15T03:26:25.489Z,15.59
2022-09-15T03:27:27.278Z,15.58
2022-09-15T03:28:31.885Z,15.58
2022-09-15T03:29:33.779Z,15.58
2022-09-15T03:30:38.158Z,15.57
2022-09-15T03:31:39.983Z,15.58
2022-09-15T03:32:44.470Z,15.59
2022-09-15T03:33:46.460Z,15.58
2022-09-15T03:34:52.401Z,15.59
2022-09-15T03:35:56.266Z,15.60
2022-09-15T03:37:00.657Z,15.61
2022-09-15T03:38:02.467Z,15.62
2022-09-15T03:39:07.113Z,15.64
2022-09-15T03:40:10.850Z,15.65
2022-09-15T03:41:15.531Z,15.68
2022-09-15T03:42:17.380Z,15.67
2022-09-15T03:43:21.829Z,15.66
2022-09-15T03:44:24.247Z,15.65
2022-09-15T03:45:28.652Z,15.64
2022-09-15T03:46:30.540Z,15.62
2022-09-15T03:47:35.165Z,15.60
2022-09-15T03:48:37.713Z,15.61
2022-09-15T03:49:42.110Z,15.60
2022-09-15T03:50:43.898Z,15.59
2022-09-15T03:51:48.443Z,15.59
2022-09-15T03:52:50.658Z,15.58
2022-09-15T03:53:55.048Z,15.57
2022-09-15T03:54:56.819Z,15.57
2022-09-15T03:56:09.969Z,15.57
2022-09-15T03:57:11.752Z,15.57
2022-09-15T03:58:16.275Z,15.57
2022-09-15T03:59:19.040Z,15.57
2022-09-15T04:00:23.432Z,15.59
2022-09-15T04:01:25.378Z,15.60
2022-09-15T04:02:29.919Z,15.61
2022-09-15T04:03:31.887Z,15.62
2022-09-15T04:04:36.866Z,15.63
2022-09-15T04:05:38.916Z,15.63
2022-09-15T04:06:43.589Z,15.63
2022-09-15T04:07:45.403Z,15.63
2022-09-15T04:08:50.232Z,15.62
2022-09-15T04:09:52.163Z,15.63
2022-09-15T04:10:56.982Z,15.62
2022-09-15T04:11:58.870Z,15.61
2022-09-15T04:13:03.229Z,15.61
2022-09-15T04:14:05.068Z,15.60
2022-09-15T04:15:09.617Z,15.57
2022-09-15T04:16:15.456Z,15.55
2022-09-15T04:17:19.982Z,15.51
2022-09-15T04:18:21.901Z,15.47
2022-09-15T04:19:26.323Z,15.43
2022-09-15T04:20:28.274Z,15.40
2022-09-15T04:21:32.872Z,15.36
2022-09-15T04:22:34.689Z,15.32
2022-09-15T04:23:39.211Z,15.30
2022-09-15T04:24:44.171Z,15.29
2022-09-15T04:25:57.146Z,15.27
2022-09-15T04:26:59.112Z,15.24
2022-09-15T04:28:03.556Z,15.21
2022-09-15T04:29:06.111Z,15.19
2022-09-15T04:30:10.718Z,15.18
2022-09-15T04:31:13.470Z,15.16
2022-09-15T04:32:17.865Z,15.16
2022-09-15T04:33:19.746Z,15.13
2022-09-15T04:34:24.578Z,15.11
2022-09-15T04:35:26.360Z,15.08
2022-09-15T04:36:31.774Z,15.05
2022-09-15T04:37:33.628Z,15.02
2022-09-15T04:38:38.862Z,15.01
2022-09-15T04:39:43.282Z,14.99
2022-09-15T04:40:45.604Z,14.98
2022-09-15T04:41:50.073Z,14.95
2022-09-15T04:42:52.897Z,14.94
2022-09-15T04:43:57.578Z,14.94
2022-09-15T04:44:59.482Z,14.93
2022-09-15T04:46:03.878Z,14.94
2022-09-15T04:47:08.307Z,14.92
2022-09-15T04:48:10.190Z,14.92
2022-09-15T04:49:14.596Z,14.93
2022-09-15T04:50:16.573Z,14.94
2022-09-15T04:51:23.127Z,14.96
2022-09-15T04:52:24.919Z,14.98
2022-09-15T04:53:29.300Z,15.00
2022-09-15T04:54:33.620Z,15.03
2022-09-15T04:55:38.778Z,15.07
2022-09-15T04:56:40.582Z,15.08
2022-09-15T04:57:44.951Z,15.12
2022-09-15T04:58:47.709Z,15.14
2022-09-15T04:59:52.191Z,15.17
2022-09-15T05:00:54.124Z,15.18
2022-09-15T05:01:58.881Z,15.20
2022-09-15T05:03:00.747Z,15.24
2022-09-15T05:04:06.006Z,15.26
2022-09-15T05:05:07.999Z,15.27
2022-09-15T05:06:13.874Z,15.29
2022-09-15T05:07:18.317Z,15.31
2022-09-15T05:08:20.197Z,15.32
2022-09-15T05:09:25.359Z,15.35
2022-09-15T05:10:27.233Z,15.37
2022-09-15T05:11:32.881Z,15.38
2022-09-15T05:12:34.691Z,15.40
2022-09-15T05:13:39.577Z,15.42
2022-09-15T05:14:41.354Z,15.44
2022-09-15T05:15:45.740Z,15.46
2022-09-15T05:16:47.570Z,15.48
2022-09-15T05:17:52.530Z,15.52
2022-09-15T05:18:55.204Z,15.54
2022-09-15T05:19:59.610Z,15.56
2022-09-15T05:21:01.991Z,15.60
2022-09-15T05:22:06.395Z,15.64
2022-09-15T05:23:08.283Z,15.69
2022-09-15T05:24:12.651Z,15.73
2022-09-15T05:25:14.429Z,15.77
2022-09-15T05:26:19.802Z,15.83
2022-09-15T05:27:21.575Z,15.87
2022-09-15T05:28:26.461Z,15.94
2022-09-15T05:29:28.260Z,15.98
2022-09-15T05:30:38.560Z,16.02
2022-09-15T05:31:45.001Z,16.05
2022-09-15T05:32:46.863Z,16.09
2022-09-15T05:33:52.733Z,16.13
2022-09-15T05:34:54.537Z,16.17
2022-09-15T05:36:02.570Z,16.21
2022-09-15T05:37:06.958Z,16.28
2022-09-15T05:38:08.722Z,16.32
2022-09-15T05:39:13.138Z,16.33
2022-09-15T05:40:15.403Z,16.43
2022-09-15T05:41:21.079Z,16.48
2022-09-15T05:42:22.918Z,16.53
2022-09-15T05:43:27.293Z,16.56
2022-09-15T05:44:31.663Z,16.57
2022-09-15T05:45:33.538Z,16.61
2022-09-15T05:46:37.968Z,16.63
2022-09-15T05:47:39.800Z,16.64
2022-09-15T05:48:44.176Z,16.66
2022-09-15T05:49:48.801Z,16.67
2022-09-15T05:50:51.105Z,16.65
2022-09-15T05:51:55.599Z,16.68
2022-09-15T05:52:57.363Z,16.70
2022-09-15T05:54:02.826Z,16.68
2022-09-15T05:55:04.804Z,16.70
2022-09-15T05:56:15.813Z,16.71
2022-09-15T05:57:17.603Z,16.73
2022-09-15T05:58:21.968Z,16.77
2022-09-15T05:59:23.770Z,16.81
2022-09-15T06:00:28.373Z,16.87
2022-09-15T06:01:31.225Z,16.91
2022-09-15T06:02:36.154Z,17.00
2022-09-15T06:03:38.003Z,17.06
2022-09-15T06:04:42.419Z,17.14
2022-09-15T06:05:44.200Z,17.21
2022-09-15T06:06:48.597Z,17.27
2022-09-15T06:07:52.790Z,17.35
2022-09-15T06:08:59.494Z,17.42
2022-09-15T06:10:01.486Z,17.48
2022-09-15T06:11:07.040Z,17.53
2022-09-15T06:12:11.498Z,17.57
2022-09-15T06:13:13.259Z,17.59
2022-09-15T06:14:17.658Z,17.64
2022-09-15T06:15:19.955Z,17.67
2022-09-15T06:16:25.229Z,17.72
2022-09-15T06:17:28.327Z,17.77
2022-09-15T06:18:32.789Z,17.83
2022-09-15T06:19:37.208Z,17.90
2022-09-15T06:20:40.339Z,17.99
2022-09-15T06:21:44.741Z,18.08
2022-09-15T06:22:46.506Z,18.18
2022-09-15T06:23:55.193Z,18.25
2022-09-15T06:24:57.055Z,18.32
2022-09-15T06:26:06.884Z,18.36
2022-09-15T06:27:11.270Z,18.43
2022-09-15T06:28:13.117Z,18.47
2022-09-15T06:29:17.502Z,18.48
2022-09-15T06:30:19.274Z,18.47
2022-09-15T06:31:23.862Z,18.48
2022-09-15T06:32:28.578Z,18.47
2022-09-15T06:33:30.572Z,18.47
2022-09-15T06:34:35.449Z,18.46
2022-09-15T06:35:37.238Z,18.43
2022-09-15T06:36:41.670Z,18.41
2022-09-15T06:37:43.471Z,18.41
2022-09-15T06:38:47.934Z,18.38
2022-09-15T06:39:49.839Z,18.36
2022-09-15T06:40:58.275Z,18.35
2022-09-15T06:42:04.803Z,18.35
2022-09-15T06:43:09.373Z,18.33
2022-09-15T06:44:13.811Z,18.34
2022-09-15T06:45:15.640Z,18.36
2022-09-15T06:46:21.828Z,18.36
2022-09-15T06:47:24.346Z,18.39
2022-09-15T06:48:28.740Z,18.44
2022-09-15T06:49:31.256Z,18.43
2022-09-15T06:50:35.683Z,18.41
2022-09-15T06:51:40.036Z,18.43
2022-09-15T06:52:43.597Z,18.39
2022-09-15T06:53:48.032Z,18.42
2022-09-15T06:54:50.041Z,18.41
2022-09-15T06:55:54.910Z,18.41
2022-09-15T06:56:59.369Z,18.38
2022-09-15T06:58:01.175Z,18.34
2022-09-15T06:59:05.766Z,18.26
2022-09-15T07:00:08.273Z,18.26
2022-09-15T07:01:16.798Z,18.23
2022-09-15T07:02:21.326Z,18.23
2022-09-15T07:03:23.221Z,18.22
2022-09-15T07:04:27.681Z,18.27
2022-09-15T07:05:29.829Z,18.33
2022-09-15T07:06:35.431Z,18.42
2022-09-15T07:07:40.761Z,18.49
2022-09-15T07:08:42.846Z,18.58
2022-09-15T07:09:49.732Z,18.63
2022-09-15T07:10:51.624Z,18.66
2022-09-15T07:11:55.995Z,18.75
2022-09-15T07:12:58.984Z,18.78
2022-09-15T07:14:03.454Z,18.79
2022-09-15T07:15:05.430Z,18.82
2022-09-15T07:16:11.948Z,18.83
2022-09-15T07:17:16.369Z,18.79
2022-09-15T07:18:18.216Z,18.80
2022-09-15T07:19:22.582Z,18.83
2022-09-15T07:20:25.824Z,18.80
2022-09-15T07:21:30.318Z,18.80
2022-09-15T07:22:32.243Z,18.86
2022-09-15T07:23:37.227Z,18.85
2022-09-15T07:24:39.000Z,18.82
2022-09-15T07:25:44.126Z,18.80
2022-09-15T07:26:48.630Z,18.78
2022-09-15T07:27:50.420Z,18.79
2022-09-15T07:28:56.838Z,18.69
2022-09-15T07:29:58.922Z,18.67
2022-09-15T07:31:03.335Z,18.61
2022-09-15T07:32:08.659Z,18.56
2022-09-15T07:33:11.589Z,18.50
2022-09-15T07:34:15.963Z,18.48
2022-09-15T07:35:17.799Z,18.47
2022-09-15T07:36:22.186Z,18.44
2022-09-15T07:37:24.022Z,18.42
2022-09-15T07:38:28.499Z,18.45
2022-09-15T07:39:31.014Z,18.51
2022-09-15T07:40:35.433Z,18.58
2022-09-15T07:41:39.856Z,18.69
2022-09-15T07:42:44.661Z,18.81
2022-09-15T07:43:52.923Z,18.84
2022-09-15T07:44:54.756Z,19.02
2022-09-15T07:45:59.904Z,19.15
2022-09-15T07:47:04.339Z,19.28
2022-09-15T07:48:06.475Z,19.31
2022-09-15T07:49:12.789Z,19.33
2022-09-15T07:50:14.893Z,19.33
2022-09-15T07:51:20.393Z,19.34
2022-09-15T07:52:22.191Z,19.31
2022-09-15T07:53:26.598Z,19.29
2022-09-15T07:54:28.577Z,19.19
2022-09-15T07:55:33.062Z,19.08
2022-09-15T07:56:34.855Z,19.02
2022-09-15T07:57:39.219Z,18.96
2022-09-15T07:58:41.055Z,18.87
2022-09-15T07:59:45.517Z,18.73
2022-09-15T08:00:47.736Z,18.72
2022-09-15T08:01:52.642Z,18.69
2022-09-15T08:02:54.755Z,18.59
2022-09-15T08:03:59.275Z,18.63
2022-09-15T08:05:01.048Z,18.54
2022-09-15T08:06:06.018Z,18.56
2022-09-15T08:07:07.834Z,18.57
2022-09-15T08:08:12.214Z,18.62
2022-09-15T08:09:17.826Z,18.69
2022-09-15T08:10:19.715Z,18.72
2022-09-15T08:11:24.255Z,18.73
2022-09-15T08:12:26.114Z,18.75
2022-09-15T08:13:32.401Z,18.79
2022-09-15T08:14:34.259Z,18.86
2022-09-15T08:15:39.662Z,18.78
2022-09-15T08:16:44.881Z,18.78
2022-09-15T08:17:46.788Z,18.82
2022-09-15T08:18:51.673Z,18.83
2022-09-15T08:19:53.671Z,18.88
2022-09-15T08:20:58.167Z,18.91
2022-09-15T08:22:00.042Z,18.93
2022-09-15T08:23:04.570Z,18.90
2022-09-15T08:24:08.991Z,18.92
2022-09-15T08:25:10.920Z,18.93
2022-09-15T08:26:15.931Z,18.99
2022-09-15T08:27:17.761Z,19.01
2022-09-15T08:28:22.183Z,19.04
2022-09-15T08:29:24.078Z,19.08
2022-09-15T08:30:29.434Z,19.13
2022-09-15T08:31:31.365Z,19.14
2022-09-15T08:32:35.866Z,19.16
2022-09-15T08:33:44.769Z,19.20
2022-09-15T08:34:50.218Z,19.24
2022-09-15T08:35:52.088Z,19.27
2022-09-15T08:36:56.477Z,19.30
2022-09-15T08:37:58.387Z,19.27
2022-09-15T08:39:02.796Z,19.29
2022-09-15T08:40:04.923Z,19.31
2022-09-15T08:41:10.640Z,19.31
2022-09-15T08:42:19.133Z,19.35
2022-09-15T08:43:25.115Z,19.40
2022-09-15T08:44:41.462Z,19.40
2022-09-15T08:45:53.686Z,19.42
2022-09-15T08:47:00.783Z,19.39
2022-09-15T08:48:03.475Z,19.32
2022-09-15T08:49:13.351Z,19.33
2022-09-15T08:50:27.441Z,19.40
2022-09-15T08:52:04.790Z,19.44
2022-09-15T08:53:11.979Z,19.45
2022-09-15T08:54:26.530Z,19.49
2022-09-15T08:55:37.476Z,19.52
2022-09-15T08:56:42.449Z,19.54
2022-09-15T08:57:47.471Z,19.64
2022-09-15T08:58:49.404Z,19.72
2022-09-15T08:59:54.539Z,19.77
2022-09-15T09:01:00.938Z,19.85
2022-09-15T09:02:22.028Z,19.89
2022-09-15T09:03:45.405Z,19.91
2022-09-15T09:04:50.090Z,19.89
2022-09-15T09:06:00.439Z,19.88
2022-09-15T09:07:20.830Z,19.91
2022-09-15T09:08:25.222Z,19.92
2022-09-15T09:09:44.531Z,19.96
2022-09-15T09:10:50.744Z,20.07
2022-09-15T09:12:07.547Z,20.10
2022-09-15T09:13:24.203Z,20.03
2022-09-15T09:14:29.005Z,20.15
2022-09-15T09:15:36.536Z,20.22
2022-09-15T09:16:44.438Z,20.28
2022-09-15T09:18:07.402Z,20.31
2022-09-15T09:19:15.566Z,20.26
2022-09-15T09:20:22.736Z,20.21
2022-09-15T09:21:38.095Z,20.22
2022-09-15T09:22:42.984Z,20.35
2022-09-15T09:24:03.790Z,20.38
2022-09-15T09:25:25.829Z,20.62
2022-09-15T09:26:32.346Z,20.79
2022-09-15T09:27:35.023Z,20.89
2022-09-15T09:28:50.116Z,20.99
2022-09-15T09:29:56.562Z,21.16
2022-09-15T09:31:03.184Z,21.34
2022-09-15T09:32:09.011Z,21.34
2022-09-15T09:33:30.449Z,21.32
2022-09-15T09:34:37.013Z,21.40
2022-09-15T09:35:54.322Z,21.41
2022-09-15T09:37:01.874Z,21.49
2022-09-15T09:38:03.714Z,21.61
2022-09-15T09:39:08.681Z,21.66
2022-09-15T09:40:14.310Z,21.70
2022-09-15T09:41:28.629Z,21.75
2022-09-15T09:42:31.287Z,21.65
2022-09-15T09:43:35.676Z,21.69
2022-09-15T09:44:37.640Z,21.62
2022-09-15T09:45:42.005Z,21.74
2022-09-15T09:46:46.832Z,21.89
2022-09-15T09:47:48.612Z,22.02
2022-09-15T09:48:57.532Z,22.19
2022-09-15T09:50:02.788Z,22.38
2022-09-15T09:51:05.228Z,22.60
2022-09-15T09:52:09.610Z,22.87
2022-09-15T09:53:26.778Z,23.05
2022-09-15T09:54:31.709Z,23.24
2022-09-15T09:55:33.535Z,23.28
2022-09-15T09:56:38.306Z,23.21
2022-09-15T09:57:42.718Z,23.06
2022-09-15T09:58:44.745Z,22.97
2022-09-15T09:59:49.908Z,22.79
2022-09-15T10:00:52.514Z,22.63
2022-09-15T10:02:15.792Z,22.40
2022-09-15T10:03:20.153Z,22.25
2022-09-15T10:04:23.013Z,22.22
2022-09-15T10:05:27.419Z,22.22
2022-09-15T10:06:29.428Z,22.23
2022-09-15T10:07:35.283Z,22.23
2022-09-15T10:08:37.070Z,22.47
2022-09-15T10:09:41.720Z,22.58
2022-09-15T10:10:50.311Z,22.85
2022-09-15T10:11:56.157Z,22.97
2022-09-15T10:12:58.778Z,23.20
2022-09-15T10:14:03.270Z,23.48
2022-09-15T10:15:08.605Z,23.52
2022-09-15T10:16:10.401Z,23.57
2022-09-15T10:17:15.875Z,23.53
2022-09-15T10:18:28.153Z,23.57
2022-09-15T10:19:33.992Z,23.48
2022-09-15T10:20:42.579Z,23.28
2022-09-15T10:21:44.398Z,23.18
2022-09-15T10:22:48.813Z,23.06
2022-09-15T10:23:50.597Z,22.80
2022-09-15T10:24:54.995Z,22.78
2022-09-15T10:26:00.108Z,22.69
2022-09-15T10:27:19.602Z,22.69
2022-09-15T10:28:23.134Z,22.83
2022-09-15T10:29:27.497Z,22.86
2022-09-15T10:30:29.384Z,22.89
2022-09-15T10:31:34.824Z,23.03
2022-09-15T10:32:39.360Z,23.20
2022-09-15T10:33:42.667Z,23.30
2022-09-15T10:34:48.874Z,23.40
2022-09-15T10:35:50.665Z,23.54
2022-09-15T10:36:58.482Z,23.57
2022-09-15T10:38:15.872Z,23.68
2022-09-15T10:39:26.841Z,23.75
2022-09-15T10:40:49.995Z,23.62
2022-09-15T10:42:13.082Z,23.70
2022-09-15T10:43:29.747Z,23.72
2022-09-15T10:44:40.802Z,23.67
2022-09-15T10:45:47.545Z,23.59
2022-09-15T10:47:08.214Z,23.50
2022-09-15T10:48:18.778Z,23.32
2022-09-15T10:49:35.071Z,23.11
2022-09-15T10:50:47.395Z,22.84
2022-09-15T10:51:54.459Z,22.76
2022-09-15T10:53:02.287Z,22.51
2022-09-15T10:54:26.357Z,22.33
2022-09-15T10:55:48.963Z,22.17
2022-09-15T10:56:58.303Z,22.10
2022-09-15T10:58:02.889Z,22.09
2022-09-15T10:59:22.978Z,22.13
2022-09-15T11:00:25.793Z,22.07
2022-09-15T11:01:34.307Z,22.04
2022-09-15T11:02:38.715Z,22.02
2022-09-15T11:04:02.179Z,22.08
2022-09-15T11:05:04.854Z,22.10
2022-09-15T11:06:21.365Z,22.19
2022-09-15T11:07:27.613Z,22.40
2022-09-15T11:08:50.550Z,22.48
2022-09-15T11:10:15.687Z,22.58
2022-09-15T11:11:38.716Z,22.67
2022-09-15T11:12:50.526Z,22.79
2022-09-15T11:14:07.474Z,22.87
2022-09-15T11:15:35.413Z,22.98
2022-09-15T11:16:44.065Z,23.13
2022-09-15T11:17:51.295Z,22.96
2022-09-15T11:19:02.617Z,22.92
2022-09-15T11:20:14.180Z,22.85
2022-09-15T11:21:21.561Z,22.64
2022-09-15T11:22:27.506Z,22.57
2022-09-15T11:23:35.281Z,22.61
2022-09-15T11:24:39.907Z,22.64
2022-09-15T11:25:45.795Z,22.66
2022-09-15T11:26:48.828Z,22.41
2022-09-15T11:27:56.619Z,22.49
2022-09-15T11:28:59.997Z,22.44
2022-09-15T11:30:07.230Z,22.55
2022-09-15T11:31:27.051Z,22.58
2022-09-15T11:32:37.272Z,22.70
2022-09-15T11:33:45.398Z,22.85
2022-09-15T11:34:50.013Z,23.00
2022-09-15T11:35:56.560Z,23.01
2022-09-15T11:37:04.285Z,22.87
2022-09-15T11:38:14.837Z,22.77
2022-09-15T11:39:26.241Z,22.74
2022-09-15T11:40:29.467Z,22.63
2022-09-15T11:41:44.397Z,22.52
2022-09-15T11:42:47.106Z,22.37
2022-09-15T11:43:57.576Z,22.06
2022-09-15T11:45:01.991Z,21.75
2022-09-15T11:46:06.234Z,21.62
2022-09-15T11:47:13.020Z,21.42
2022-09-15T11:48:31.792Z,21.20
2022-09-15T11:49:36.104Z,21.14
2022-09-15T11:50:38.788Z,21.09
2022-09-15T11:51:44.620Z,21.10
2022-09-15T11:53:02.874Z,20.99
2022-09-15T11:54:16.697Z,21.12
2022-09-15T11:55:18.458Z,21.29
2022-09-15T11:56:30.641Z,21.35
2022-09-15T11:57:35.115Z,21.39
2022-09-15T11:58:52.070Z,21.43
2022-09-15T11:59:55.690Z,21.48
2022-09-15T12:01:09.024Z,21.63
2022-09-15T12:02:17.170Z,21.80
2022-09-15T12:03:34.339Z,21.96
2022-09-15T12:04:38.940Z,22.17
2022-09-15T12:05:49.250Z,22.25
2022-09-15T12:07:16.793Z,22.28
2022-09-15T12:08:23.350Z,22.50
2022-09-15T12:09:27.714Z,22.67
2022-09-15T12:10:32.295Z,22.71
2022-09-15T12:11:42.307Z,22.78
2022-09-15T12:12:44.110Z,22.90
2022-09-15T12:13:48.574Z,22.94
2022-09-15T12:14:50.814Z,22.91
2022-09-15T12:15:55.228Z,22.95
2022-09-15T12:16:57.800Z,22.91
2022-09-15T12:18:27.309Z,22.74
2022-09-15T12:19:52.909Z,22.54
2022-09-15T12:21:06.393Z,22.44
2022-09-15T12:22:25.298Z,22.28
2022-09-15T12:23:29.589Z,22.30
2022-09-15T12:24:33.963Z,22.19
2022-09-15T12:25:44.405Z,22.19
2022-09-15T12:26:46.764Z,22.29
2022-09-15T12:28:26.833Z,22.42
2022-09-15T12:29:30.369Z,22.48
2022-09-15T12:30:41.560Z,22.62
2022-09-15T12:31:45.922Z,22.61
2022-09-15T12:32:47.706Z,22.58
2022-09-15T12:33:59.430Z,22.47
2022-09-15T12:35:11.426Z,22.30
2022-09-15T12:36:47.184Z,22.26
2022-09-15T12:38:01.010Z,22.38
2022-09-15T12:39:03.329Z,22.38
2022-09-15T12:40:08.834Z,22.47
2022-09-15T12:41:11.360Z,22.58
2022-09-15T12:42:18.702Z,22.48
2022-09-15T12:43:23.613Z,22.54
2022-09-15T12:44:42.236Z,22.54
2022-09-15T12:45:47.496Z,22.51
2022-09-15T12:46:58.492Z,22.39
2022-09-15T12:48:06.186Z,22.47
2022-09-15T12:49:10.351Z,22.64
2022-09-15T12:50:33.590Z,22.56
2022-09-15T12:51:35.393Z,22.66
2022-09-15T12:53:09.265Z,22.68
2022-09-15T12:54:12.781Z,22.68
2022-09-15T12:55:21.890Z,22.55
2022-09-15T12:56:28.025Z,22.64
2022-09-15T12:57:34.017Z,22.56
2022-09-15T12:58:36.539Z,22.48
2022-09-15T12:59:41.094Z,22.32
2022-09-15T13:01:07.218Z,22.30
2022-09-15T13:02:10.745Z,22.19
2022-09-15T13:03:28.484Z,22.19
2022-09-15T13:04:42.471Z,22.13
2022-09-15T13:05:47.389Z,22.24
2022-09-15T13:07:11.745Z,22.34
2022-09-15T13:08:28.283Z,22.36
2022-09-15T13:09:30.930Z,22.25
2022-09-15T13:10:36.679Z,22.20
2022-09-15T13:11:39.728Z,22.16
2022-09-15T13:12:45.643Z,22.19
2022-09-15T13:14:15.574Z,22.20
2022-09-15T13:15:17.406Z,22.10
2022-09-15T13:16:24.871Z,21.89
2022-09-15T13:17:27.671Z,21.77
2022-09-15T13:18:32.952Z,21.85
2022-09-15T13:19:41.090Z,21.90
2022-09-15T13:20:49.153Z,21.90
2022-09-15T13:21:59.004Z,21.98
2022-09-15T13:23:00.890Z,22.00
2022-09-15T13:24:05.821Z,21.93
2022-09-15T13:25:15.765Z,21.83
2022-09-15T13:26:22.682Z,21.83
2022-09-15T13:27:37.871Z,21.79
2022-09-15T13:28:39.681Z,21.80
2022-09-15T13:29:47.338Z,21.76
2022-09-15T13:30:49.144Z,21.74
2022-09-15T13:31:55.855Z,21.59
2022-09-15T13:33:09.791Z,21.55
2022-09-15T13:35:57.799Z,21.46
2022-09-15T13:38:32.963Z,21.58
2022-09-15T13:39:34.748Z,21.60
2022-09-15T13:40:45.077Z,21.61
2022-09-15T13:41:52.562Z,21.62
2022-09-15T13:42:54.388Z,21.64
2022-09-15T13:44:02.984Z,21.66
2022-09-15T13:45:16.582Z,21.70
2022-09-15T13:46:28.529Z,21.73
2022-09-15T13:47:30.438Z,21.78
2022-09-15T13:48:35.873Z,21.87
2022-09-15T13:49:46.678Z,22.01
2022-09-15T13:51:02.734Z,22.12
2022-09-15T13:52:24.452Z,22.37
2022-09-15T13:53:48.761Z,22.62
2022-09-15T13:55:10.319Z,22.88
2022-09-15T13:56:17.003Z,22.99
2022-09-15T13:57:18.927Z,22.91
2022-09-15T13:59:48.480Z,22.86
2022-09-15T14:00:55.447Z,22.71
2022-09-15T14:02:00.765Z,22.35
2022-09-15T14:03:28.675Z,22.23
2022-09-15T14:04:33.835Z,22.13
2022-09-15T14:05:35.692Z,21.92
2022-09-15T14:06:41.052Z,21.81
2022-09-15T14:07:42.842Z,21.70
2022-09-15T14:08:48.542Z,21.71
2022-09-15T14:09:53.911Z,21.68
2022-09-15T14:10:56.964Z,21.58
2022-09-15T14:12:05.621Z,21.69
2022-09-15T14:13:07.428Z,21.74
2022-09-15T14:14:26.739Z,21.82
2022-09-15T14:15:28.753Z,21.77
2022-09-15T14:16:34.340Z,21.78
2022-09-15T14:17:37.907Z,21.76
2022-09-15T14:18:45.807Z,21.67
2022-09-15T14:19:51.582Z,21.69
2022-09-15T14:21:06.485Z,21.66